createdAt,value
2022-11-15T00:01:41.797Z,10.52
2022-11-15T00:05:22.903Z,11.63
2022-11-15T00:09:04.613Z,11.30
2022-11-15T00:12:45.274Z,11.05
2022-11-15T00:20:07.449Z,9.50
2022-11-15T00:23:48.007Z,10.23
2022-11-15T00:27:28.674Z,10.02
2022-11-15T00:31:14.087Z,10.23
2022-11-15T00:34:54.677Z,11.60
2022-11-15T00:38:36.780Z,13.38
2022-11-15T00:42:20.263Z,12.52
2022-11-15T00:46:01.202Z,12.52
2022-11-15T00:49:42.883Z,14.35
2022-11-15T00:53:23.496Z,13.90
2022-11-15T00:57:04.131Z,13.48
2022-11-15T01:00:44.945Z,15.02
2022-11-15T01:08:05.896Z,12.52
2022-11-15T01:11:46.410Z,13.65
2022-11-15T01:15:27.498Z,12.18
2022-11-15T01:19:09.011Z,14.02
2022-11-15T01:22:52.320Z,12.40
2022-11-15T01:26:32.874Z,12.48
2022-11-15T01:33:53.900Z,12.65
2022-11-15T01:37:34.418Z,12.38
2022-11-15T01:41:24.236Z,13.77
2022-11-15T01:45:07.771Z,12.32
2022-11-15T01:48:55.576Z,12.98
2022-11-15T01:52:39.087Z,12.45
2022-11-15T01:56:24.527Z,12.02
2022-11-15T02:00:07.902Z,13.68
2022-11-15T02:03:57.831Z,11.85
2022-11-15T02:07:41.588Z,11.50
2022-11-15T02:11:22.571Z,13.35
2022-11-15T02:15:05.829Z,12.35
2022-11-15T02:18:53.322Z,12.45
2022-11-15T02:22:45.067Z,11.52
2022-11-15T02:26:49.682Z,11.82
2022-11-15T02:30:42.665Z,10.15
2022-11-15T02:34:32.863Z,9.95
2022-11-15T02:38:45.948Z,8.60
2022-11-15T02:42:49.658Z,9.25
2022-11-15T02:46:57.349Z,8.85
2022-11-15T02:50:38.027Z,8.90
2022-11-15T02:54:26.094Z,10.10
2022-11-15T02:58:40.164Z,10.60
2022-11-15T03:03:09.162Z,9.77
2022-11-15T03:07:08.863Z,12.80
2022-11-15T03:11:14.422Z,11.70
2022-11-15T03:15:23.863Z,12.23
2022-11-15T03:19:15.926Z,11.35
2022-11-15T03:23:13.628Z,12.85
2022-11-15T03:27:03.754Z,13.50
2022-11-15T03:30:53.987Z,12.70
2022-11-15T03:34:57.910Z,12.82
2022-11-15T03:38:51.866Z,12.27
2022-11-15T03:42:42.608Z,13.77
2022-11-15T03:46:32.874Z,12.43
2022-11-15T03:50:19.369Z,11.70
2022-11-15T03:54:02.683Z,13.40
2022-11-15T03:57:43.502Z,12.38
2022-11-15T04:01:24.433Z,11.95
2022-11-15T04:05:05.780Z,12.27
2022-11-15T04:08:46.691Z,12.88
2022-11-15T04:12:33.287Z,11.93
2022-11-15T04:16:13.937Z,11.20
2022-11-15T04:20:13.419Z,11.43
2022-11-15T04:24:05.673Z,11.95
2022-11-15T04:27:46.257Z,12.63
2022-11-15T04:31:27.422Z,12.43
2022-11-15T04:35:08.235Z,11.88
2022-11-15T04:38:48.661Z,12.23
2022-11-15T04:42:29.507Z,12.23
2022-11-15T04:46:09.936Z,12.00
2022-11-15T04:53:31.236Z,12.10
2022-11-15T04:57:12.610Z,13.63
2022-11-15T05:00:56.504Z,11.88
2022-11-15T05:04:37.331Z,11.52
2022-11-15T05:08:18.096Z,11.20
2022-11-15T05:11:58.633Z,11.80
2022-11-15T05:15:39.343Z,11.57
2022-11-15T05:19:19.729Z,11.20
2022-11-15T05:26:40.768Z,10.73
2022-11-15T05:30:21.091Z,9.88
2022-11-15T05:34:07.025Z,11.25
2022-11-15T05:37:47.972Z,9.95
2022-11-15T05:41:44.181Z,9.63
2022-11-15T05:45:27.034Z,11.65
2022-11-15T05:49:10.772Z,10.90
2022-11-15T05:52:51.847Z,10.25
2022-11-15T05:56:33.002Z,10.70
2022-11-15T06:00:13.805Z,10.60
2022-11-15T06:03:54.404Z,10.27
2022-11-15T06:07:34.834Z,13.23
2022-11-15T06:11:15.704Z,12.13
2022-11-15T06:14:56.121Z,11.93
2022-11-15T06:18:36.664Z,11.75
2022-11-15T06:22:17.337Z,12.15
2022-11-15T06:25:59.796Z,16.10
2022-11-15T06:29:40.212Z,13.13
2022-11-15T06:33:21.009Z,12.00
2022-11-15T06:37:01.901Z,12.88
2022-11-15T06:44:25.781Z,12.82
2022-11-15T06:48:06.530Z,14.70
2022-11-15T06:51:47.147Z,14.45
2022-11-15T06:55:27.908Z,16.05
2022-11-15T07:02:49.890Z,15.70
2022-11-15T07:06:30.428Z,16.90
2022-11-15T07:10:11.282Z,15.82
2022-11-15T07:17:33.187Z,15.07
2022-11-15T07:21:13.781Z,16.35
2022-11-15T07:28:35.328Z,43.80
2022-11-15T07:32:16.135Z,73.40
2022-11-15T07:39:40.210Z,18.25
2022-11-15T07:43:21.017Z,18.33
2022-11-15T07:47:01.730Z,15.25
2022-11-15T07:50:43.905Z,14.65
2022-11-15T07:54:27.194Z,15.50
2022-11-15T07:58:10.204Z,15.48
2022-11-15T08:01:50.936Z,14.32
2022-11-15T08:05:34.094Z,17.60
2022-11-15T08:09:14.913Z,16.27
2022-11-15T08:16:45.460Z,15.57
2022-11-15T08:20:27.564Z,15.85
2022-11-15T08:24:11.174Z,15.70
2022-11-15T08:27:54.549Z,16.98
2022-11-15T08:31:35.988Z,15.70
2022-11-15T08:35:24.854Z,17.17
2022-11-15T08:39:13.222Z,16.50
2022-11-15T08:42:54.810Z,16.45
2022-11-15T08:46:37.268Z,16.60
2022-11-15T08:50:17.993Z,16.63
2022-11-15T08:57:43.101Z,14.93
2022-11-15T09:01:24.893Z,14.07
2022-11-15T09:05:06.452Z,15.77
2022-11-15T09:08:48.421Z,14.55
2022-11-15T09:12:29.254Z,14.43
2022-11-15T09:16:10.162Z,15.27
2022-11-15T09:19:50.846Z,14.82
2022-11-15T09:23:32.048Z,15.02
2022-11-15T09:27:14.469Z,14.38
2022-11-15T09:31:00.162Z,15.55
2022-11-15T09:34:41.063Z,17.60
2022-11-15T09:38:22.112Z,16.73
2022-11-15T09:46:24.794Z,15.20
2022-11-15T09:50:34.434Z,14.32
2022-11-15T09:54:45.488Z,14.85
2022-11-15T09:57:57.941Z,14.15
2022-11-15T10:02:03.140Z,15.45
2022-11-15T10:05:27.806Z,14.75
2022-11-15T10:09:02.091Z,15.77
2022-11-15T10:12:28.355Z,16.20
2022-11-15T10:15:52.508Z,16.10
2022-11-15T10:19:33.434Z,17.30
2022-11-15T10:23:01.096Z,17.17
2022-11-15T10:26:29.518Z,16.30
2022-11-15T10:29:54.590Z,15.88
2022-11-15T10:33:35.181Z,15.50
2022-11-15T10:37:01.464Z,15.82
2022-11-15T10:40:25.409Z,16.30
2022-11-15T10:44:17.880Z,17.67
2022-11-15T10:47:40.076Z,17.08
2022-11-15T10:51:20.006Z,15.90
2022-11-15T10:54:55.353Z,17.73
2022-11-15T10:58:34.591Z,18.60
2022-11-15T11:01:57.366Z,17.30
2022-11-15T11:05:41.005Z,17.88
2022-11-15T11:09:06.967Z,19.23
2022-11-15T11:12:32.555Z,16.83
2022-11-15T11:16:07.526Z,17.45
2022-11-15T11:19:29.824Z,18.55
2022-11-15T11:23:24.526Z,19.08
2022-11-15T11:27:05.531Z,15.70
2022-11-15T11:30:39.001Z,17.08
2022-11-15T11:34:19.935Z,17.67
2022-11-15T11:37:45.098Z,17.67
2022-11-15T11:41:39.399Z,17.27
2022-11-15T11:45:47.229Z,16.13
2022-11-15T11:49:51.667Z,19.13
2022-11-15T11:53:34.122Z,19.20
2022-11-15T11:56:59.483Z,17.92
2022-11-15T12:00:28.605Z,17.45
2022-11-15T12:04:15.467Z,16.75
2022-11-15T12:07:40.282Z,17.20
2022-11-15T12:11:21.955Z,13.95
2022-11-15T12:14:56.533Z,14.30
2022-11-15T12:18:19.060Z,15.02
2022-11-15T12:22:19.099Z,13.65
2022-11-15T12:25:51.528Z,15.13
2022-11-15T12:29:21.637Z,13.98
2022-11-15T12:36:24.482Z,14.77
2022-11-15T12:40:10.605Z,14.73
2022-11-15T12:43:52.980Z,16.73
2022-11-15T12:47:31.008Z,15.10
2022-11-15T12:51:14.590Z,13.10
2022-11-15T12:54:44.019Z,13.82
2022-11-15T12:58:46.292Z,15.00
2022-11-15T13:02:56.179Z,14.90
2022-11-15T13:07:21.125Z,14.38
2022-11-15T13:10:55.551Z,14.80
2022-11-15T13:15:08.418Z,14.32
2022-11-15T13:18:59.211Z,15.00
2022-11-15T13:22:40.481Z,13.55
2022-11-15T13:26:11.742Z,13.63
2022-11-15T13:29:48.272Z,14.65
2022-11-15T13:33:43.405Z,14.75
2022-11-15T13:37:28.546Z,15.23
2022-11-15T13:41:01.741Z,16.27
2022-11-15T13:44:38.230Z,16.00
2022-11-15T13:52:06.005Z,15.95
2022-11-15T13:55:37.009Z,13.90
2022-11-15T13:59:10.614Z,14.18
2022-11-15T14:02:38.398Z,13.32
2022-11-15T14:06:25.644Z,11.98
2022-11-15T14:09:57.069Z,13.63
2022-11-15T14:13:31.557Z,14.38
2022-11-15T14:16:56.708Z,16.60
2022-11-15T14:20:41.446Z,16.73
2022-11-15T14:24:24.270Z,15.05
2022-11-15T14:28:29.558Z,15.73
2022-11-15T14:31:52.490Z,15.02
2022-11-15T14:35:21.241Z,16.80
2022-11-15T14:38:44.379Z,17.70
2022-11-15T14:42:10.638Z,15.75
2022-11-15T14:45:32.868Z,15.43
2022-11-15T14:48:54.943Z,13.50
2022-11-15T14:52:31.761Z,14.52
2022-11-15T14:55:54.954Z,15.27
2022-11-15T14:59:17.035Z,14.43
2022-11-15T15:02:39.841Z,14.38
2022-11-15T15:06:04.618Z,13.98
2022-11-15T15:09:29.814Z,15.38
2022-11-15T15:12:52.063Z,13.13
2022-11-15T15:16:14.266Z,14.85
2022-11-15T15:19:36.414Z,13.45
2022-11-15T15:23:01.951Z,12.15
2022-11-15T15:26:27.431Z,13.55
2022-11-15T15:29:49.972Z,14.25
2022-11-15T15:33:18.166Z,12.30
2022-11-15T15:36:47.099Z,13.57
2022-11-15T15:40:17.139Z,12.95
2022-11-15T15:43:42.681Z,12.10
2022-11-15T15:47:16.128Z,13.35
2022-11-15T15:50:38.612Z,12.57
2022-11-15T15:54:00.800Z,11.68
2022-11-15T15:57:23.593Z,12.57
2022-11-15T16:00:45.933Z,14.45
2022-11-15T16:04:14.222Z,11.95
2022-11-15T16:07:37.427Z,13.27
2022-11-15T16:11:00.194Z,12.20
2022-11-15T16:14:38.693Z,11.82
2022-11-15T16:18:06.294Z,13.63
2022-11-15T16:21:32.776Z,13.40
2022-11-15T16:24:55.679Z,13.85
2022-11-15T16:28:27.177Z,14.50
2022-11-15T16:31:50.431Z,15.57
2022-11-15T16:35:14.169Z,14.48
2022-11-15T16:38:37.443Z,14.93
2022-11-15T16:42:00.959Z,13.00
2022-11-15T16:45:23.726Z,15.10
2022-11-15T16:48:46.572Z,14.05
2022-11-15T16:52:11.047Z,13.48
2022-11-15T16:55:33.804Z,12.75
2022-11-15T16:59:00.913Z,13.32
2022-11-15T17:02:23.233Z,13.52
2022-11-15T17:05:45.613Z,13.90
2022-11-15T17:09:15.465Z,15.75
2022-11-15T17:12:39.734Z,14.63
2022-11-15T17:16:13.761Z,13.63
2022-11-15T17:19:36.225Z,13.10
2022-11-15T17:23:01.777Z,14.32
2022-11-15T17:26:30.358Z,14.18
2022-11-15T17:29:54.907Z,13.90
2022-11-15T17:33:17.477Z,15.00
2022-11-15T17:36:39.999Z,13.95
2022-11-15T17:40:02.448Z,14.48
2022-11-15T17:43:24.991Z,14.55
2022-11-15T17:46:47.543Z,14.07
2022-11-15T17:50:11.025Z,14.35
2022-11-15T17:57:15.656Z,15.23
2022-11-15T18:00:40.598Z,15.13
2022-11-15T18:04:05.866Z,14.45
2022-11-15T18:07:33.019Z,14.75
2022-11-15T18:11:10.412Z,15.30
2022-11-15T18:14:32.668Z,14.32
2022-11-15T18:18:00.656Z,14.98
2022-11-15T18:21:25.735Z,14.82
2022-11-15T18:24:48.467Z,14.25
2022-11-15T18:28:13.077Z,15.32
2022-11-15T18:31:35.235Z,15.65
2022-11-15T18:34:57.542Z,15.80
2022-11-15T18:38:19.774Z,15.55
2022-11-15T18:41:42.982Z,16.33
2022-11-15T18:45:06.464Z,16.48
2022-11-15T18:48:31.611Z,16.35
2022-11-15T18:51:53.914Z,17.45
2022-11-15T18:55:16.270Z,17.17
2022-11-15T18:58:43.510Z,17.10
2022-11-15T19:02:06.034Z,17.58
2022-11-15T19:05:30.690Z,17.50
2022-11-15T19:08:57.360Z,16.52
2022-11-15T19:12:19.648Z,17.65
2022-11-15T19:15:41.844Z,15.45
2022-11-15T19:19:07.209Z,17.60
2022-11-15T19:22:29.520Z,17.20
2022-11-15T19:26:02.449Z,17.73
2022-11-15T19:29:24.840Z,18.95
2022-11-15T19:32:47.049Z,17.83
2022-11-15T19:36:18.135Z,19.92
2022-11-15T19:39:41.459Z,19.75
2022-11-15T19:43:04.369Z,19.88
2022-11-15T19:46:27.180Z,19.38
2022-11-15T19:49:51.961Z,18.10
2022-11-15T19:53:14.648Z,17.17
2022-11-15T19:56:38.089Z,17.25
2022-11-15T20:00:05.807Z,16.63
2022-11-15T20:03:30.717Z,18.90
2022-11-15T20:06:53.238Z,17.15
2022-11-15T20:10:19.671Z,18.77
2022-11-15T20:13:43.601Z,17.52
2022-11-15T20:17:07.763Z,17.63
2022-11-15T20:20:32.445Z,16.77
2022-11-15T20:23:55.358Z,13.93
2022-11-15T20:27:17.609Z,12.85
2022-11-15T20:30:39.806Z,15.00
2022-11-15T20:34:02.222Z,12.68
2022-11-15T20:37:24.417Z,11.52
2022-11-15T20:40:47.845Z,11.27
2022-11-15T20:44:10.231Z,13.55
2022-11-15T20:47:32.694Z,12.77
2022-11-15T20:51:14.629Z,10.90
2022-11-15T20:54:37.173Z,12.07
2022-11-15T20:57:59.330Z,11.50
2022-11-15T21:01:24.473Z,13.65
2022-11-15T21:04:47.018Z,14.00
2022-11-15T21:08:10.535Z,12.75
2022-11-15T21:11:54.264Z,12.05
2022-11-15T21:15:19.507Z,11.90
2022-11-15T21:18:41.650Z,12.52
2022-11-15T21:22:05.861Z,12.52
2022-11-15T21:25:28.196Z,13.07
2022-11-15T21:28:50.426Z,13.07
2022-11-15T21:32:15.788Z,14.10
2022-11-15T21:35:38.083Z,12.70
2022-11-15T21:39:00.302Z,13.13
2022-11-15T21:42:22.553Z,16.50
2022-11-15T21:45:55.615Z,15.68
2022-11-15T21:49:18.182Z,15.52
2022-11-15T21:52:47.889Z,13.85
2022-11-15T21:56:12.329Z,15.27
2022-11-15T21:59:34.543Z,14.93
2022-11-15T22:02:57.307Z,13.63
2022-11-15T22:06:19.705Z,17.20
2022-11-15T22:09:42.095Z,16.75
2022-11-15T22:13:04.312Z,17.08
2022-11-15T22:16:26.926Z,13.70
2022-11-15T22:19:52.934Z,13.55
2022-11-15T22:23:15.383Z,13.02
2022-11-15T22:26:37.557Z,11.48
2022-11-15T22:29:59.805Z,12.27
2022-11-15T22:33:30.421Z,11.70
2022-11-15T22:37:19.036Z,11.95
2022-11-15T22:40:36.865Z,10.65
2022-11-15T22:43:59.069Z,11.07
2022-11-15T22:47:21.579Z,11.70
2022-11-15T22:50:45.215Z,9.57
2022-11-15T22:54:08.187Z,9.32
2022-11-15T22:57:30.760Z,10.07
2022-11-15T23:00:57.669Z,9.15
2022-11-15T23:04:22.447Z,10.43
2022-11-15T23:07:46.088Z,10.98
2022-11-15T23:11:30.091Z,10.80
2022-11-15T23:14:52.306Z,11.23
2022-11-15T23:18:18.299Z,10.40
2022-11-15T23:22:01.826Z,8.70
2022-11-15T23:25:24.107Z,9.25
2022-11-15T23:28:46.490Z,9.00
2022-11-15T23:32:27.719Z,7.45
2022-11-15T23:35:55.959Z,8.40
2022-11-15T23:39:18.238Z,9.63
2022-11-15T23:42:40.509Z,8.07
2022-11-15T23:46:04.194Z,8.30
2022-11-15T23:49:26.583Z,7.70
2022-11-15T23:52:51.008Z,9.07
2022-11-15T23:56:15.691Z,7.55
2022-11-15T23:59:49.309Z,7.80
